Airfield :
LOGIN :

Register | Disclaimer

   EN    FR    IT 

 










Legend :    VFR   Marginal VFR   IFR   Intensive IFR   Very Intensive IFR
Visi :
Ceiling :
>= 8 km
>= 3000ft
5 to 8 km
1000 to 3000 ft
1500m to 5 km
500 to 1000 ft
800 to 1500m
200 to 500 ft
< 800m
< 200 ft
Symbols :   Thunderstorms  Fog  Heavy snow  Heavy precipitations  Wind > 20 kt
SIGMETs :     Misc.  Thunderstorms  Icing  Turbulence  Mountain Waves  Volcanic Ashes






- Airport Elevation : 538 ft
- IATA code : TNF


LFPN - Toussus Le Noble

CURRENT METAR :
  • 131100Z AUTO 21012KT 9999 BKN031 BKN038 BKN120 27/18 Q1013 TEMPO SHRA SCT045CB

EXPIRED METARs :
  • 131030Z AUTO 21010KT 9999 SCT025 BKN033 27/19 Q1013 TEMPO SHRA SCT045CB
  • 131000Z AUTO 18010KT 9999 FEW022 25/18 Q1013 NOSIG
  • 130930Z AUTO 18009KT 150V210 9999 FEW014 25/19 Q1013 NOSIG
  • 130900Z AUTO 19009KT 140V220 9999 SCT014 24/19 Q1013 NOSIG
  • 130830Z AUTO 18010KT 9999 BKN010 BKN014 22/19 Q1013 BECMG NSC

TAF AMD TAF LFPN
Valid from the 13 at 09:00 until the 13 at 18:00 UTC


130844Z 1309/1318 19006KT 9999 SCT014
TEMPO 1309/1310 BKN014
BECMG 1310/1312 SCT025
TEMPO 1312/1318 SHRA SCT045CB
PROB30
TEMPO 1313/1318 20015G30KT 2000 TSRA BKN040CB
ATIS : +33 1 39 56 54 70



MET'MAP, your aeronautical weather chart ! - Copyright ORBIFLY December 2007 - Disclaimer

ORBIFLY MET'MAP TEAM :

Programming & Development : Alexandra Zaïnal
Concept & original design : Baudouin d'Aumeries
Assistance for programming : Marc-Olivier Méhu
Technical & hardware support : Manuel Goepfert

Contact : metmap@orbifly.com




SOURCES & CREDITS :

   NOAA